createdAt,value
2023-10-20T00:00:12.202Z,980.93
2023-10-20T00:01:12.475Z,980.89
2023-10-20T00:02:12.771Z,980.90
2023-10-20T00:03:13.125Z,980.95
2023-10-20T00:04:13.321Z,980.92
2023-10-20T00:05:13.607Z,980.94
2023-10-20T00:06:13.786Z,980.90
2023-10-20T00:07:14.032Z,980.86
2023-10-20T00:08:14.424Z,980.84
2023-10-20T00:09:14.616Z,980.79
2023-10-20T00:10:14.887Z,980.77
2023-10-20T00:11:15.186Z,980.79
2023-10-20T00:12:15.489Z,980.73
2023-10-20T00:13:15.736Z,980.73
2023-10-20T00:14:16.010Z,980.68
2023-10-20T00:15:17.547Z,980.73
2023-10-20T00:16:16.558Z,980.70
2023-10-20T00:17:16.824Z,980.71
2023-10-20T00:18:17.132Z,980.69
2023-10-20T00:19:17.369Z,980.74
2023-10-20T00:20:17.682Z,980.79
2023-10-20T00:21:17.916Z,980.74
2023-10-20T00:22:18.178Z,980.67
2023-10-20T00:23:18.456Z,980.63
2023-10-20T00:24:18.715Z,980.61
2023-10-20T00:25:18.978Z,980.62
2023-10-20T00:26:19.283Z,980.63
2023-10-20T00:27:19.518Z,980.64
2023-10-20T00:28:19.793Z,980.62
2023-10-20T00:29:20.073Z,980.57
2023-10-20T00:30:20.337Z,980.53
2023-10-20T00:31:20.637Z,980.56
2023-10-20T00:32:20.902Z,980.54
2023-10-20T00:33:21.188Z,980.48
2023-10-20T00:34:21.490Z,980.54
2023-10-20T00:35:21.781Z,980.49
2023-10-20T00:36:22.009Z,980.51
2023-10-20T00:37:22.295Z,980.50
2023-10-20T00:38:22.562Z,980.44
2023-10-20T00:39:22.785Z,980.44
2023-10-20T00:40:23.040Z,980.44
2023-10-20T00:41:23.327Z,980.36
2023-10-20T00:42:23.598Z,980.36
2023-10-20T00:43:23.842Z,980.33
2023-10-20T00:44:24.146Z,980.31
2023-10-20T00:45:24.410Z,980.28
2023-10-20T00:46:24.661Z,980.25
2023-10-20T00:47:24.969Z,980.21
2023-10-20T00:48:25.280Z,980.16
2023-10-20T00:49:25.527Z,980.12
2023-10-20T00:50:25.868Z,980.03
2023-10-20T00:51:26.145Z,979.98
2023-10-20T00:52:26.390Z,979.91
2023-10-20T00:53:26.703Z,979.97
2023-10-20T00:54:26.976Z,979.92
2023-10-20T00:55:27.233Z,979.93
2023-10-20T00:56:27.518Z,979.90
2023-10-20T00:57:27.849Z,979.90
2023-10-20T00:58:28.104Z,979.83
2023-10-20T00:59:28.439Z,979.81
2023-10-20T01:00:28.681Z,979.79
2023-10-20T01:01:28.978Z,979.77
2023-10-20T01:02:29.330Z,979.78
2023-10-20T01:03:29.624Z,979.84
2023-10-20T01:04:29.825Z,979.76
2023-10-20T01:05:30.132Z,979.71
2023-10-20T01:06:30.350Z,979.72
2023-10-20T01:07:30.616Z,979.71
2023-10-20T01:08:30.915Z,979.70
2023-10-20T01:09:31.157Z,979.67
2023-10-20T01:10:31.416Z,979.65
2023-10-20T01:11:31.733Z,979.68
2023-10-20T01:12:31.949Z,979.71
2023-10-20T01:13:32.208Z,979.72
2023-10-20T01:14:32.801Z,979.71
2023-10-20T01:15:32.762Z,979.74
2023-10-20T01:16:33.031Z,979.77
2023-10-20T01:17:33.378Z,979.78
2023-10-20T01:18:33.630Z,979.82
2023-10-20T01:19:33.889Z,979.79
2023-10-20T01:20:34.187Z,979.84
2023-10-20T01:21:34.443Z,979.83
2023-10-20T01:22:34.703Z,979.82
2023-10-20T01:23:35.065Z,979.85
2023-10-20T01:24:35.325Z,979.81
2023-10-20T01:25:35.567Z,979.78
2023-10-20T01:26:35.850Z,979.80
2023-10-20T01:27:36.142Z,979.75
2023-10-20T01:28:36.386Z,979.76
2023-10-20T01:29:36.746Z,979.74
2023-10-20T01:30:36.990Z,979.73
2023-10-20T01:31:37.239Z,979.77
2023-10-20T01:32:37.556Z,979.73
2023-10-20T01:33:37.784Z,979.73
2023-10-20T01:34:38.058Z,979.69
2023-10-20T01:35:38.360Z,979.71
2023-10-20T01:36:38.623Z,979.69
2023-10-20T01:37:38.867Z,979.68
2023-10-20T01:38:39.181Z,979.70
2023-10-20T01:39:39.455Z,979.67
2023-10-20T01:40:39.696Z,979.65
2023-10-20T01:41:40.019Z,979.63
2023-10-20T01:42:40.241Z,979.57
2023-10-20T01:43:40.510Z,979.48
2023-10-20T01:44:40.866Z,979.51
2023-10-20T01:45:41.079Z,979.42
2023-10-20T01:46:41.398Z,979.44
2023-10-20T01:47:41.773Z,979.43
2023-10-20T01:48:41.919Z,979.44
2023-10-20T01:49:42.215Z,979.42
2023-10-20T01:50:42.510Z,979.41
2023-10-20T01:51:42.756Z,979.41
2023-10-20T01:52:43.006Z,979.37
2023-10-20T01:53:43.267Z,979.36
2023-10-20T01:54:43.587Z,979.38
2023-10-20T01:55:43.856Z,979.31
2023-10-20T01:56:44.068Z,979.29
2023-10-20T01:57:44.330Z,979.26
2023-10-20T01:58:44.580Z,979.17
2023-10-20T01:59:44.853Z,979.13
2023-10-20T02:00:45.169Z,979.09
2023-10-20T02:01:45.385Z,979.06
2023-10-20T02:02:45.793Z,979.02
2023-10-20T02:03:46.165Z,979.01
2023-10-20T02:04:46.294Z,979.02
2023-10-20T02:05:46.544Z,978.94
2023-10-20T02:06:46.804Z,978.90
2023-10-20T02:07:47.053Z,978.89
2023-10-20T02:08:47.311Z,978.90
2023-10-20T02:09:47.609Z,978.90
2023-10-20T02:10:47.862Z,978.86
2023-10-20T02:11:48.114Z,978.83
2023-10-20T02:12:48.379Z,978.79
2023-10-20T02:13:48.652Z,978.81
2023-10-20T02:14:48.926Z,978.75
2023-10-20T02:15:49.176Z,978.76
2023-10-20T02:16:49.502Z,978.73
2023-10-20T02:17:49.789Z,978.72
2023-10-20T02:18:50.033Z,978.64
2023-10-20T02:19:50.340Z,978.64
2023-10-20T02:20:50.583Z,978.61
2023-10-20T02:21:50.859Z,978.60
2023-10-20T02:22:51.150Z,978.57
2023-10-20T02:23:51.390Z,978.61
2023-10-20T02:24:51.688Z,978.54
2023-10-20T02:25:51.954Z,978.56
2023-10-20T02:26:52.214Z,978.54
2023-10-20T02:27:52.480Z,978.56
2023-10-20T02:28:52.723Z,978.50
2023-10-20T02:29:53.007Z,978.44
2023-10-20T02:30:53.403Z,978.44
2023-10-20T02:31:53.576Z,978.42
2023-10-20T02:32:53.865Z,978.41
2023-10-20T02:33:54.114Z,978.40
2023-10-20T02:34:54.457Z,978.35
2023-10-20T02:35:54.712Z,978.32
2023-10-20T02:36:54.948Z,978.27
2023-10-20T02:37:55.219Z,978.20
2023-10-20T02:38:55.463Z,978.16
2023-10-20T02:39:55.742Z,978.15
2023-10-20T02:40:56.047Z,978.27
2023-10-20T02:41:56.293Z,978.31
2023-10-20T02:42:56.557Z,978.31
2023-10-20T02:43:56.891Z,978.31
2023-10-20T02:44:57.138Z,978.20
2023-10-20T02:45:57.432Z,978.09
2023-10-20T02:46:57.656Z,978.02
2023-10-20T02:47:57.949Z,977.98
2023-10-20T02:48:58.199Z,977.98
2023-10-20T02:49:58.477Z,977.97
2023-10-20T02:50:58.740Z,977.96
2023-10-20T02:51:59.025Z,977.95
2023-10-20T02:52:59.285Z,977.91
2023-10-20T02:53:59.563Z,977.94
2023-10-20T02:54:59.868Z,977.90
2023-10-20T02:56:00.270Z,977.88
2023-10-20T02:57:00.362Z,977.84
2023-10-20T02:58:00.609Z,977.83
2023-10-20T02:59:00.920Z,977.86
2023-10-20T03:00:01.194Z,977.82
2023-10-20T03:01:01.453Z,977.86
2023-10-20T03:02:01.800Z,977.87
2023-10-20T03:03:02.056Z,977.83
2023-10-20T03:04:02.445Z,977.80
2023-10-20T03:05:02.591Z,977.77
2023-10-20T03:06:02.711Z,977.70
2023-10-20T03:07:02.954Z,977.64
2023-10-20T03:08:03.231Z,977.58
2023-10-20T03:09:03.472Z,977.50
2023-10-20T03:10:03.762Z,977.45
2023-10-20T03:11:03.994Z,977.47
2023-10-20T03:12:04.233Z,977.37
2023-10-20T03:13:04.568Z,977.34
2023-10-20T03:14:04.795Z,977.26
2023-10-20T03:15:05.032Z,977.22
2023-10-20T03:16:05.260Z,977.23
2023-10-20T03:17:05.511Z,977.27
2023-10-20T03:18:05.927Z,977.23
2023-10-20T03:19:06.107Z,977.25
2023-10-20T03:20:06.548Z,977.22
2023-10-20T03:21:06.727Z,977.24
2023-10-20T03:22:06.978Z,977.21
2023-10-20T03:23:07.288Z,977.16
2023-10-20T03:24:07.478Z,977.21
2023-10-20T03:25:07.836Z,977.16
2023-10-20T03:26:08.128Z,977.17
2023-10-20T03:27:08.413Z,977.20
2023-10-20T03:28:08.606Z,977.23
2023-10-20T03:29:08.888Z,977.17
2023-10-20T03:30:09.117Z,977.26
2023-10-20T03:31:09.349Z,977.23
2023-10-20T03:32:09.647Z,977.15
2023-10-20T03:33:09.903Z,977.14
2023-10-20T03:34:10.118Z,977.11
2023-10-20T03:35:10.460Z,977.14
2023-10-20T03:36:10.644Z,977.11
2023-10-20T03:37:10.975Z,977.16
2023-10-20T03:38:11.344Z,977.12
2023-10-20T03:39:11.565Z,977.19
2023-10-20T03:40:11.945Z,977.17
2023-10-20T03:41:12.218Z,977.17
2023-10-20T03:42:12.546Z,977.23
2023-10-20T03:43:12.705Z,977.16
2023-10-20T03:44:12.964Z,977.14
2023-10-20T03:45:13.225Z,977.12
2023-10-20T03:46:13.517Z,977.03
2023-10-20T03:47:13.722Z,976.96
2023-10-20T03:48:14.079Z,976.96
2023-10-20T03:49:14.289Z,977.01
2023-10-20T03:50:14.611Z,976.98
2023-10-20T03:51:14.813Z,976.97
2023-10-20T03:52:15.056Z,976.92
2023-10-20T03:53:15.364Z,976.85
2023-10-20T03:54:15.553Z,976.78
2023-10-20T03:55:15.882Z,976.74
2023-10-20T03:56:16.532Z,976.67
2023-10-20T03:57:16.459Z,976.68
2023-10-20T03:58:16.697Z,976.60
2023-10-20T03:59:17.012Z,976.66
2023-10-20T04:00:17.326Z,976.67
2023-10-20T04:01:17.625Z,976.70
2023-10-20T04:02:18.004Z,976.72
2023-10-20T04:03:18.226Z,976.70
2023-10-20T04:04:18.502Z,976.68
2023-10-20T04:05:18.807Z,976.59
2023-10-20T04:06:19.095Z,976.52
2023-10-20T04:07:19.318Z,976.49
2023-10-20T04:08:19.630Z,976.47
2023-10-20T04:09:19.907Z,976.44
2023-10-20T04:10:20.207Z,976.45
2023-10-20T04:11:22.157Z,976.42
2023-10-20T04:12:20.783Z,976.40
2023-10-20T04:13:21.053Z,976.40
2023-10-20T04:14:21.372Z,976.36
2023-10-20T04:15:21.655Z,976.36
2023-10-20T04:16:21.966Z,976.27
2023-10-20T04:17:22.279Z,976.21
2023-10-20T04:18:22.545Z,976.17
2023-10-20T04:19:22.831Z,976.12
2023-10-20T04:20:23.139Z,976.15
2023-10-20T04:21:23.416Z,976.14
2023-10-20T04:22:23.679Z,976.11
2023-10-20T04:23:23.976Z,976.11
2023-10-20T04:24:24.251Z,976.10
2023-10-20T04:25:24.557Z,976.09
2023-10-20T04:26:24.843Z,976.01
2023-10-20T04:27:25.089Z,975.88
2023-10-20T04:28:25.354Z,975.88
2023-10-20T04:29:25.643Z,975.87
2023-10-20T04:30:25.988Z,975.84
2023-10-20T04:31:26.240Z,975.82
2023-10-20T04:32:26.615Z,975.75
2023-10-20T04:33:26.820Z,975.72
2023-10-20T04:34:26.992Z,975.69
2023-10-20T04:35:27.305Z,975.63
2023-10-20T04:36:27.557Z,975.55
2023-10-20T04:37:27.872Z,975.48
2023-10-20T04:38:28.121Z,975.42
2023-10-20T04:39:28.356Z,975.42
2023-10-20T04:40:28.850Z,975.36
2023-10-20T04:41:28.987Z,975.38
2023-10-20T04:42:29.235Z,975.34
2023-10-20T04:43:29.691Z,975.34
2023-10-20T04:44:29.885Z,975.33
2023-10-20T04:45:30.108Z,975.36
2023-10-20T04:46:30.388Z,975.35
2023-10-20T04:47:30.695Z,975.38
2023-10-20T04:48:31.018Z,975.37
2023-10-20T04:49:31.289Z,975.35
2023-10-20T04:50:31.631Z,975.28
2023-10-20T04:51:31.890Z,975.24
2023-10-20T04:52:32.201Z,975.23
2023-10-20T04:53:32.496Z,975.26
2023-10-20T04:54:32.835Z,975.22
2023-10-20T04:55:33.028Z,975.19
2023-10-20T04:56:33.334Z,975.18
2023-10-20T04:57:33.584Z,975.13
2023-10-20T04:58:33.858Z,975.10
2023-10-20T04:59:34.148Z,975.03
2023-10-20T05:00:34.416Z,975.01
2023-10-20T05:01:34.729Z,975.00
2023-10-20T05:02:35.130Z,974.96
2023-10-20T05:03:35.450Z,974.95
2023-10-20T05:04:35.595Z,974.93
2023-10-20T05:05:35.968Z,974.91
2023-10-20T05:06:36.070Z,974.89
2023-10-20T05:07:36.331Z,974.87
2023-10-20T05:08:36.628Z,974.85
2023-10-20T05:09:37.065Z,974.81
2023-10-20T05:10:37.980Z,974.79
2023-10-20T05:11:37.518Z,974.77
2023-10-20T05:12:37.787Z,974.71
2023-10-20T05:13:38.050Z,974.63
2023-10-20T05:14:38.422Z,974.56
2023-10-20T05:15:38.710Z,974.55
2023-10-20T05:16:39.195Z,974.52
2023-10-20T05:17:39.369Z,974.46
2023-10-20T05:18:39.619Z,974.40
2023-10-20T05:19:39.898Z,974.41
2023-10-20T05:20:40.186Z,974.37
2023-10-20T05:21:40.485Z,974.38
2023-10-20T05:22:40.721Z,974.35
2023-10-20T05:23:41.044Z,974.44
2023-10-20T05:24:41.264Z,974.37
2023-10-20T05:25:41.576Z,974.31
2023-10-20T05:26:41.830Z,974.26
2023-10-20T05:27:42.070Z,974.18
2023-10-20T05:28:42.432Z,974.11
2023-10-20T05:29:42.629Z,974.04
2023-10-20T05:30:42.868Z,973.98
2023-10-20T05:31:43.174Z,973.95
2023-10-20T05:32:43.451Z,974.03
2023-10-20T05:33:43.688Z,974.07
2023-10-20T05:34:43.922Z,974.18
2023-10-20T05:35:44.256Z,974.26
2023-10-20T05:36:44.462Z,974.33
2023-10-20T05:37:44.717Z,974.43
2023-10-20T05:38:44.953Z,974.50
2023-10-20T05:39:45.228Z,974.57
2023-10-20T05:40:45.532Z,974.58
2023-10-20T05:41:45.814Z,974.58
2023-10-20T05:42:46.059Z,974.58
2023-10-20T05:43:46.376Z,974.56
2023-10-20T05:44:46.625Z,974.53
2023-10-20T05:45:46.879Z,974.45
2023-10-20T05:46:47.136Z,974.40
2023-10-20T05:47:47.492Z,974.42
2023-10-20T05:48:47.864Z,974.40
2023-10-20T05:49:47.997Z,974.36
2023-10-20T05:50:48.265Z,974.33
2023-10-20T05:51:48.485Z,974.32
2023-10-20T05:52:48.759Z,974.27
2023-10-20T05:53:49.058Z,974.30
2023-10-20T05:54:49.276Z,974.30
2023-10-20T05:55:49.522Z,974.20
2023-10-20T05:56:49.858Z,974.18
2023-10-20T05:57:50.031Z,974.18
2023-10-20T05:58:50.266Z,974.22
2023-10-20T05:59:50.505Z,974.28
2023-10-20T06:01:02.369Z,974.24
2023-10-20T06:01:52.042Z,974.21
2023-10-20T06:02:51.319Z,974.16
2023-10-20T06:03:51.653Z,974.17
2023-10-20T06:04:51.870Z,974.19
2023-10-20T06:05:52.257Z,974.18
2023-10-20T06:06:52.479Z,974.16
2023-10-20T06:07:52.728Z,974.04
2023-10-20T06:08:52.981Z,974.03
2023-10-20T06:09:53.223Z,973.99
2023-10-20T06:10:53.474Z,973.97
2023-10-20T06:11:53.721Z,973.94
2023-10-20T06:12:53.993Z,973.99
2023-10-20T06:13:54.193Z,973.97
2023-10-20T06:14:54.465Z,973.97
2023-10-20T06:15:54.727Z,973.96
2023-10-20T06:16:54.961Z,974.06
2023-10-20T06:17:55.351Z,974.10
2023-10-20T06:18:55.622Z,974.08
2023-10-20T06:19:55.830Z,974.14
2023-10-20T06:20:56.090Z,974.15
2023-10-20T06:21:56.326Z,974.12
2023-10-20T06:22:56.591Z,974.09
2023-10-20T06:23:56.840Z,974.08
2023-10-20T06:24:57.098Z,974.03
2023-10-20T06:25:57.353Z,974.01
2023-10-20T06:26:57.611Z,974.00
2023-10-20T06:27:57.858Z,973.94
2023-10-20T06:28:58.092Z,973.90
2023-10-20T06:29:58.328Z,973.87
2023-10-20T06:30:58.580Z,973.92
2023-10-20T06:31:58.866Z,973.91
2023-10-20T06:32:59.187Z,973.84
2023-10-20T06:33:59.411Z,973.80
2023-10-20T06:34:59.624Z,973.79
2023-10-20T06:35:59.874Z,973.79
2023-10-20T06:37:00.135Z,973.85
2023-10-20T06:38:00.360Z,973.95
2023-10-20T06:39:00.595Z,973.98
2023-10-20T06:40:00.835Z,973.95
2023-10-20T06:41:01.089Z,973.90
2023-10-20T06:42:01.363Z,973.96
2023-10-20T06:43:01.603Z,973.98
2023-10-20T06:44:01.836Z,973.89
2023-10-20T06:45:02.132Z,973.88
2023-10-20T06:46:02.417Z,973.91
2023-10-20T06:47:02.665Z,973.94
2023-10-20T06:48:03.046Z,973.92
2023-10-20T06:49:03.160Z,973.92
2023-10-20T06:50:03.431Z,973.99
2023-10-20T06:51:03.708Z,973.91
2023-10-20T06:52:03.974Z,973.91
2023-10-20T06:53:04.224Z,973.93
2023-10-20T06:54:04.489Z,973.92
2023-10-20T06:55:34.749Z,973.88
2023-10-20T06:57:05.377Z,973.83
2023-10-20T06:58:05.646Z,973.84
2023-10-20T06:59:05.915Z,973.88
2023-10-20T07:00:06.281Z,973.91
2023-10-20T07:01:06.492Z,973.89
2023-10-20T07:02:06.754Z,973.88
2023-10-20T07:03:07.104Z,973.88
2023-10-20T07:04:07.269Z,973.87
2023-10-20T07:05:07.531Z,973.83
2023-10-20T07:06:07.797Z,973.81
2023-10-20T07:07:08.070Z,973.78
2023-10-20T07:08:08.360Z,973.74
2023-10-20T07:09:08.611Z,973.73
2023-10-20T07:10:08.888Z,973.71
2023-10-20T07:11:09.243Z,973.72
2023-10-20T07:12:13.301Z,973.75
2023-10-20T07:13:10.737Z,973.78
2023-10-20T07:14:10.070Z,973.80
2023-10-20T07:15:10.307Z,973.79
2023-10-20T07:16:10.789Z,973.76
2023-10-20T07:17:10.923Z,973.76
2023-10-20T07:18:13.350Z,973.72
2023-10-20T07:19:11.447Z,973.75
2023-10-20T07:20:11.763Z,973.76
2023-10-20T07:21:12.032Z,973.78
2023-10-20T07:22:12.305Z,973.81
2023-10-20T07:23:12.609Z,973.81
2023-10-20T07:24:12.940Z,973.86
2023-10-20T07:25:13.234Z,973.79
2023-10-20T07:26:13.635Z,973.76
2023-10-20T07:27:13.791Z,973.84
2023-10-20T07:28:14.077Z,973.80
2023-10-20T07:29:14.369Z,973.81
2023-10-20T07:30:14.630Z,973.81
2023-10-20T07:31:14.963Z,973.77
2023-10-20T07:32:15.309Z,973.77
2023-10-20T07:33:15.701Z,973.77
2023-10-20T07:34:15.851Z,973.81
2023-10-20T07:35:16.148Z,973.83
2023-10-20T07:36:16.421Z,973.82
2023-10-20T07:37:16.707Z,973.81
2023-10-20T07:38:17.002Z,973.84
2023-10-20T07:39:17.279Z,973.85
2023-10-20T07:40:17.612Z,973.85
2023-10-20T07:41:17.947Z,973.89
2023-10-20T07:42:18.203Z,973.87
2023-10-20T07:43:18.486Z,973.93
2023-10-20T07:44:18.778Z,973.91
2023-10-20T07:45:19.043Z,973.84
2023-10-20T07:46:19.333Z,973.86
2023-10-20T07:47:19.602Z,973.84
2023-10-20T07:48:19.975Z,973.83
2023-10-20T07:49:20.222Z,973.83
2023-10-20T07:50:20.581Z,973.76
2023-10-20T07:51:20.839Z,973.80
2023-10-20T07:52:21.112Z,973.79
2023-10-20T07:53:21.405Z,973.83
2023-10-20T07:54:21.688Z,973.82
2023-10-20T07:55:21.961Z,973.84
2023-10-20T07:56:22.277Z,973.79
2023-10-20T07:57:22.511Z,973.75
2023-10-20T07:58:22.787Z,973.82
2023-10-20T07:59:23.119Z,973.84
2023-10-20T08:00:23.415Z,973.92
2023-10-20T08:01:23.797Z,973.88
2023-10-20T08:02:24.069Z,973.86
2023-10-20T08:03:24.367Z,973.84
2023-10-20T08:04:24.818Z,973.85
2023-10-20T08:05:25.040Z,973.77
2023-10-20T08:06:25.317Z,973.81
2023-10-20T08:07:25.719Z,973.78
2023-10-20T08:08:25.871Z,973.83
2023-10-20T08:09:26.066Z,973.82
2023-10-20T08:10:26.306Z,973.81
2023-10-20T08:11:26.647Z,973.91
2023-10-20T08:12:26.825Z,973.82
2023-10-20T08:13:27.112Z,973.90
2023-10-20T08:14:27.473Z,973.90
2023-10-20T08:15:27.678Z,973.93
2023-10-20T08:16:28.002Z,973.91
2023-10-20T08:17:28.322Z,973.91
2023-10-20T08:18:28.509Z,973.91
2023-10-20T08:19:28.776Z,973.92
2023-10-20T08:20:29.100Z,973.89
2023-10-20T08:21:29.393Z,973.90
2023-10-20T08:22:29.673Z,973.89
2023-10-20T08:23:29.992Z,973.90
2023-10-20T08:24:30.223Z,973.90
2023-10-20T08:25:30.516Z,973.92
2023-10-20T08:26:30.862Z,973.98
2023-10-20T08:27:31.139Z,973.99
2023-10-20T08:28:31.428Z,974.03
2023-10-20T08:29:31.828Z,974.01
2023-10-20T08:30:31.958Z,974.03
2023-10-20T08:31:32.328Z,974.05
2023-10-20T08:32:32.597Z,974.07
2023-10-20T08:33:32.769Z,974.08
2023-10-20T08:34:33.002Z,974.07
2023-10-20T08:35:33.375Z,974.11
2023-10-20T08:36:33.642Z,974.06
2023-10-20T08:37:33.955Z,974.06
2023-10-20T08:38:34.261Z,974.03
2023-10-20T08:39:34.549Z,973.96
2023-10-20T08:40:46.265Z,973.99
2023-10-20T08:41:36.180Z,973.97
2023-10-20T08:42:35.341Z,974.00
2023-10-20T08:43:35.645Z,974.01
2023-10-20T08:44:35.975Z,974.01
2023-10-20T08:45:36.256Z,974.02
2023-10-20T08:46:36.568Z,974.02
2023-10-20T08:47:36.970Z,974.01
2023-10-20T08:48:37.156Z,974.06
2023-10-20T08:49:37.401Z,974.04
2023-10-20T08:50:37.703Z,974.02
2023-10-20T08:51:38.005Z,973.99
2023-10-20T08:52:40.145Z,974.05
2023-10-20T08:53:38.627Z,973.99
2023-10-20T08:54:38.888Z,974.00
2023-10-20T08:55:41.858Z,973.93
2023-10-20T08:56:39.511Z,974.01
2023-10-20T08:57:39.787Z,973.92
2023-10-20T08:58:40.096Z,973.99
2023-10-20T08:59:40.420Z,974.02
2023-10-20T09:00:51.308Z,973.98
2023-10-20T09:01:42.032Z,974.00
2023-10-20T09:02:41.232Z,974.07
2023-10-20T09:03:41.588Z,974.06
2023-10-20T09:04:41.781Z,974.06
2023-10-20T09:05:42.114Z,974.03
2023-10-20T09:06:42.377Z,974.06
2023-10-20T09:07:42.649Z,973.99
2023-10-20T09:08:42.991Z,974.02
2023-10-20T09:09:43.250Z,974.03
2023-10-20T09:10:43.649Z,974.02
2023-10-20T09:11:44.870Z,973.99
2023-10-20T09:12:45.762Z,973.98
2023-10-20T09:13:44.450Z,974.05
2023-10-20T09:14:44.794Z,973.98
2023-10-20T09:15:45.072Z,974.01
2023-10-20T09:16:45.248Z,974.00
2023-10-20T09:17:45.630Z,974.02
2023-10-20T09:18:45.776Z,974.03
2023-10-20T09:19:46.064Z,974.00
2023-10-20T09:20:46.388Z,974.06
2023-10-20T09:21:46.679Z,974.12
2023-10-20T09:22:46.919Z,974.11
2023-10-20T09:23:47.231Z,974.22
2023-10-20T09:24:47.536Z,974.23
2023-10-20T09:25:47.773Z,974.19
2023-10-20T09:26:48.077Z,974.17
2023-10-20T09:27:48.400Z,974.16
2023-10-20T09:28:48.702Z,974.12
2023-10-20T09:29:49.029Z,974.10
2023-10-20T09:30:49.345Z,974.05
2023-10-20T09:31:49.671Z,974.04
2023-10-20T09:32:49.998Z,974.05
2023-10-20T09:33:50.286Z,974.06
2023-10-20T09:34:52.437Z,974.04
2023-10-20T09:35:51.887Z,974.06
2023-10-20T09:36:51.167Z,974.08
2023-10-20T09:37:51.459Z,974.08
2023-10-20T09:38:51.804Z,974.12
2023-10-20T09:39:52.057Z,974.13
2023-10-20T09:40:52.338Z,974.13
2023-10-20T09:41:52.689Z,974.13
2023-10-20T09:42:52.945Z,974.13
2023-10-20T09:43:53.243Z,974.08
2023-10-20T09:44:53.554Z,974.10
2023-10-20T09:45:53.826Z,974.06
2023-10-20T09:46:54.198Z,974.05
2023-10-20T09:47:54.425Z,974.03
2023-10-20T09:48:54.614Z,974.05
2023-10-20T09:49:54.899Z,974.05
2023-10-20T09:50:55.227Z,974.06
2023-10-20T09:51:55.544Z,974.11
2023-10-20T09:52:55.849Z,974.07
2023-10-20T09:53:56.127Z,974.09
2023-10-20T09:55:58.868Z,974.02
2023-10-20T09:56:56.976Z,974.02
2023-10-20T09:57:57.271Z,974.01
2023-10-20T09:58:57.580Z,974.00
2023-10-20T09:59:57.913Z,973.99
2023-10-20T10:00:58.253Z,974.00
2023-10-20T10:01:58.603Z,974.05
2023-10-20T10:02:58.869Z,974.01
2023-10-20T10:03:59.157Z,973.99
2023-10-20T10:04:59.342Z,973.97
2023-10-20T10:05:59.624Z,973.92
2023-10-20T10:06:59.935Z,973.88
2023-10-20T10:08:00.231Z,973.89
2023-10-20T10:09:00.535Z,973.87
2023-10-20T10:10:00.774Z,973.84
2023-10-20T10:11:01.073Z,973.81
2023-10-20T10:12:01.374Z,973.82
2023-10-20T10:13:01.696Z,973.84
2023-10-20T10:14:01.977Z,973.83
2023-10-20T10:15:02.365Z,973.82
2023-10-20T10:16:02.503Z,973.79
2023-10-20T10:17:02.803Z,973.83
2023-10-20T10:18:03.173Z,973.82
2023-10-20T10:19:03.342Z,973.73
2023-10-20T10:20:03.635Z,973.76
2023-10-20T10:21:04.998Z,973.76
2023-10-20T10:22:06.399Z,973.74
2023-10-20T10:23:04.400Z,973.74
2023-10-20T10:24:04.692Z,973.77
2023-10-20T10:25:04.988Z,973.77
2023-10-20T10:26:05.295Z,973.78
2023-10-20T10:27:05.679Z,973.77
2023-10-20T10:28:05.906Z,973.77
2023-10-20T10:29:06.163Z,973.75
2023-10-20T10:30:06.487Z,973.75
2023-10-20T10:31:06.692Z,973.71
2023-10-20T10:32:09.827Z,973.73
2023-10-20T10:33:07.336Z,973.69
2023-10-20T10:34:07.498Z,973.72
2023-10-20T10:35:07.883Z,973.67
2023-10-20T10:36:08.102Z,973.66
2023-10-20T10:37:08.295Z,973.63
2023-10-20T10:38:08.588Z,973.57
2023-10-20T10:39:08.863Z,973.52
2023-10-20T10:40:09.159Z,973.43
2023-10-20T10:41:09.454Z,973.37
2023-10-20T10:42:09.764Z,973.36
2023-10-20T10:43:10.045Z,973.38
2023-10-20T10:44:10.337Z,973.35
2023-10-20T10:45:10.620Z,973.33
2023-10-20T10:46:10.952Z,973.27
2023-10-20T10:47:11.238Z,973.24
2023-10-20T10:48:11.615Z,973.26
2023-10-20T10:49:11.771Z,973.30
2023-10-20T10:50:12.073Z,973.24
2023-10-20T10:51:12.352Z,973.27
2023-10-20T10:52:12.669Z,973.29
2023-10-20T10:53:12.979Z,973.24
2023-10-20T10:54:13.280Z,973.23
2023-10-20T10:55:13.567Z,973.20
2023-10-20T10:56:13.919Z,973.16
2023-10-20T10:57:14.161Z,973.17
2023-10-20T10:58:14.466Z,973.19
2023-10-20T10:59:14.791Z,973.23
2023-10-20T11:00:15.099Z,973.24
2023-10-20T11:01:15.420Z,973.22
2023-10-20T11:02:15.767Z,973.22
2023-10-20T11:03:16.205Z,973.08
2023-10-20T11:04:16.421Z,973.11
2023-10-20T11:05:16.575Z,973.15
2023-10-20T11:06:16.864Z,973.13
2023-10-20T11:07:17.169Z,973.03
2023-10-20T11:08:18.665Z,973.06
2023-10-20T11:09:17.944Z,973.03
2023-10-20T11:10:18.028Z,973.05
2023-10-20T11:11:18.340Z,973.01
2023-10-20T11:12:18.934Z,973.01
2023-10-20T11:13:21.488Z,972.97
2023-10-20T11:14:22.356Z,973.00
2023-10-20T11:15:19.543Z,972.87
2023-10-20T11:16:19.864Z,972.92
2023-10-20T11:17:20.308Z,972.86
2023-10-20T11:18:20.452Z,972.91
2023-10-20T11:19:20.719Z,972.92
2023-10-20T11:20:21.036Z,972.93
2023-10-20T11:21:21.322Z,972.97
2023-10-20T11:22:21.668Z,973.00
2023-10-20T11:23:21.954Z,973.04
2023-10-20T11:24:22.248Z,973.00
2023-10-20T11:25:22.551Z,973.02
2023-10-20T11:26:22.879Z,973.07
2023-10-20T11:27:23.200Z,973.05
2023-10-20T11:28:23.884Z,973.03
2023-10-20T11:29:23.722Z,972.92
2023-10-20T11:30:24.006Z,972.83
2023-10-20T11:31:24.327Z,972.70
2023-10-20T11:32:24.621Z,972.71
2023-10-20T11:33:24.939Z,972.70
2023-10-20T11:34:25.211Z,972.70
2023-10-20T11:35:25.492Z,972.65
2023-10-20T11:36:25.773Z,972.63
2023-10-20T11:37:26.057Z,972.65
2023-10-20T11:38:26.343Z,972.68
2023-10-20T11:39:26.640Z,972.65
2023-10-20T11:40:26.911Z,972.62
2023-10-20T11:41:27.198Z,972.53
2023-10-20T11:42:27.452Z,972.56
2023-10-20T11:43:27.729Z,972.58
2023-10-20T11:44:28.033Z,972.57
2023-10-20T11:45:28.287Z,972.60
2023-10-20T11:46:28.598Z,972.64
2023-10-20T11:47:28.889Z,972.66
2023-10-20T11:48:29.202Z,972.68
2023-10-20T11:49:29.449Z,972.73
2023-10-20T11:50:29.747Z,972.72
2023-10-20T11:51:30.006Z,972.71
2023-10-20T11:52:30.309Z,972.73
2023-10-20T11:53:30.599Z,972.75
2023-10-20T11:54:30.862Z,972.75
2023-10-20T11:55:31.135Z,972.75
2023-10-20T11:56:33.058Z,972.72
2023-10-20T11:57:31.723Z,972.75
2023-10-20T11:58:32.015Z,972.71
2023-10-20T11:59:32.373Z,972.71
2023-10-20T12:00:32.607Z,972.79
2023-10-20T12:01:32.945Z,972.71
2023-10-20T12:02:33.273Z,972.72
2023-10-20T12:03:33.591Z,972.69
2023-10-20T12:04:34.010Z,972.65
2023-10-20T12:05:34.157Z,972.63
2023-10-20T12:06:34.444Z,972.61
2023-10-20T12:07:34.742Z,972.62
2023-10-20T12:08:35.069Z,972.60
2023-10-20T12:09:35.312Z,972.58
2023-10-20T12:10:35.590Z,972.58
2023-10-20T12:11:35.939Z,972.55
2023-10-20T12:12:36.249Z,972.55
2023-10-20T12:13:36.539Z,972.53
2023-10-20T12:14:37.138Z,972.51
2023-10-20T12:15:37.003Z,972.43
2023-10-20T12:16:37.350Z,972.45
2023-10-20T12:17:37.704Z,972.47
2023-10-20T12:18:38.021Z,972.40
2023-10-20T12:19:38.284Z,972.39
2023-10-20T12:20:45.764Z,972.32
2023-10-20T12:21:38.920Z,972.41
2023-10-20T12:22:39.150Z,972.38
2023-10-20T12:23:39.447Z,972.37
2023-10-20T12:24:39.704Z,972.38
2023-10-20T12:25:39.973Z,972.36
2023-10-20T12:26:40.297Z,972.40
2023-10-20T12:27:40.595Z,972.34
2023-10-20T12:28:40.830Z,972.37
2023-10-20T12:29:41.356Z,972.40
2023-10-20T12:30:41.583Z,972.39
2023-10-20T12:31:41.743Z,972.41
2023-10-20T12:32:42.161Z,972.43
2023-10-20T12:33:42.342Z,972.42